Arnsberg-Menden Airport


Codes: EDLA/
Name: Arnsberg-Menden Airport
City: Neheim-Husten
Country: Germany
Elevation: 794 ft.

Photos at Arnsberg-Menden Airport


   Photos courtesy of SpottingLog. You can add your own sightings and photos by signing up for a free trial today.



No photos found.

Weather at Arnsberg-Menden Airport


Time (UTC)DescriptionTempratureWindCloud coverageVisibilityPressureHumidity
26-Jun-2024 00:00Clear Sky18°C4 mph, E0%10000m1014hPa87%
26-Jun-2024 03:00Clear Sky17°C4 mph, E2%10000m1014hPa88%
26-Jun-2024 06:00Clear Sky19°C2 mph, NE6%10000m1013hPa77%
26-Jun-2024 09:00Clear Sky25°C9 mph, NE1%10000m1011hPa60%
26-Jun-2024 12:00Few Clouds28°C11 mph, NE11%10000m1010hPa54%
26-Jun-2024 15:00Light Rain26°C7 mph, NE80%10000m1009hPa69%
26-Jun-2024 18:00Light Rain23°C4 mph, NE91%10000m1008hPa87%
26-Jun-2024 21:00Light Rain20°C4 mph, SE83%10000m1009hPa90%
27-Jun-2024 00:00Broken Clouds18°C4 mph, S68%10000m1009hPa90%
27-Jun-2024 03:00Scattered Clouds18°C4 mph, S50%10000m1008hPa93%
27-Jun-2024 06:00Light Rain21°C2 mph, S63%10000m1008hPa93%
27-Jun-2024 09:00Light Rain25°C7 mph, W63%10000m1008hPa72%
27-Jun-2024 12:00Light Rain29°C9 mph, W42%10000m1008hPa46%
27-Jun-2024 15:00Broken Clouds29°C7 mph, W81%10000m1008hPa45%
27-Jun-2024 18:00Light Rain22°C7 mph, SW87%10000m1009hPa82%
27-Jun-2024 21:00Light Rain19°C7 mph, SW91%10000m1010hPa90%
28-Jun-2024 00:00Light Rain18°C7 mph, SW79%10000m1011hPa94%
28-Jun-2024 03:00Light Rain15°C9 mph, SW91%10000m1012hPa88%
28-Jun-2024 06:00Broken Clouds16°C11 mph, SW74%10000m1014hPa77%
28-Jun-2024 09:00Clear Sky19°C13 mph, W6%10000m1016hPa52%
28-Jun-2024 12:00Scattered Clouds21°C11 mph, W36%10000m1017hPa45%
28-Jun-2024 15:00Clear Sky22°C11 mph, W5%10000m1017hPa43%
28-Jun-2024 18:00Clear Sky20°C4 mph, NW7%10000m1018hPa65%
28-Jun-2024 21:00Few Clouds13°C0 mph, E19%10000m1020hPa91%
29-Jun-2024 00:00Few Clouds12°C2 mph, SE17%10000m1020hPa92%
29-Jun-2024 03:00Few Clouds11°C4 mph, SE23%10000m1018hPa94%
29-Jun-2024 06:00Few Clouds17°C2 mph, SE17%10000m1017hPa70%
29-Jun-2024 09:00Scattered Clouds23°C2 mph, E40%10000m1015hPa45%
29-Jun-2024 12:00Broken Clouds27°C0 mph, N64%10000m1012hPa35%
29-Jun-2024 15:00Light Rain25°C4 mph, NE100%10000m1009hPa59%
29-Jun-2024 18:00Light Rain23°C2 mph, E100%10000m1007hPa86%
29-Jun-2024 21:00Light Rain20°C2 mph, SE100%10000m1004hPa93%
30-Jun-2024 00:00Light Rain18°C18 mph, SW100%7744m1005hPa90%
30-Jun-2024 03:00Light Rain17°C7 mph, S92%10000m1003hPa94%
30-Jun-2024 06:00Light Rain18°C11 mph, SW96%10000m1003hPa93%
30-Jun-2024 09:00Light Rain13°C13 mph, N100%0m1007hPa96%
30-Jun-2024 12:00Light Rain13°C11 mph, SW100%10000m1009hPa88%
30-Jun-2024 15:00Overcast Clouds14°C11 mph, SW100%10000m1009hPa71%
30-Jun-2024 18:00Overcast Clouds17°C9 mph, SW94%10000m1008hPa70%
30-Jun-2024 21:00Overcast Clouds15°C4 mph, S93%10000m1008hPa80%